createdAt,value
2022-12-16T00:02:14.300Z,97898.06
2022-12-16T00:04:59.892Z,97846.97
2022-12-16T00:07:46.369Z,97820.81
2022-12-16T00:10:53.114Z,97837.97
2022-12-16T00:13:41.019Z,97866.34
2022-12-16T00:16:27.257Z,97868.03
2022-12-16T00:19:13.328Z,97825.00
2022-12-16T00:21:59.605Z,97819.41
2022-12-16T00:24:44.998Z,97870.13
2022-12-16T00:27:30.759Z,97877.28
2022-12-16T00:30:16.888Z,97882.44
2022-12-16T00:33:02.461Z,97817.75
2022-12-16T00:35:48.888Z,97840.50
2022-12-16T00:38:34.669Z,97827.25
2022-12-16T00:41:20.543Z,97831.03
2022-12-16T00:44:05.955Z,97657.22
2022-12-16T00:46:51.271Z,97671.94
2022-12-16T00:49:37.562Z,97754.41
2022-12-16T00:52:23.048Z,97774.50
2022-12-16T00:55:09.047Z,97818.41
2022-12-16T00:57:54.943Z,97804.72
2022-12-16T01:00:41.547Z,97824.09
2022-12-16T01:03:27.867Z,97825.56
2022-12-16T01:06:16.689Z,97828.50
2022-12-16T01:09:02.226Z,97821.56
2022-12-16T01:11:47.861Z,97802.03
2022-12-16T01:14:33.837Z,97650.31
2022-12-16T01:17:19.595Z,97795.53
2022-12-16T01:20:05.935Z,97806.25
2022-12-16T01:22:51.618Z,97753.47
2022-12-16T01:25:37.581Z,97383.56
2022-12-16T01:28:23.158Z,97751.19
2022-12-16T01:31:08.995Z,97777.22
2022-12-16T01:33:54.487Z,97607.16
2022-12-16T01:36:40.422Z,97775.56
2022-12-16T01:39:27.409Z,97772.59
2022-12-16T01:42:14.960Z,97686.69
2022-12-16T01:45:27.000Z,97777.75
2022-12-16T01:48:26.087Z,97656.84
2022-12-16T01:51:35.818Z,97764.63
2022-12-16T01:54:29.227Z,97575.81
2022-12-16T01:57:21.565Z,97596.19
2022-12-16T02:00:08.069Z,97706.84
2022-12-16T02:02:58.576Z,97648.66
2022-12-16T02:05:45.971Z,97541.19
2022-12-16T02:08:31.594Z,97709.56
2022-12-16T02:11:42.106Z,97713.63
2022-12-16T02:14:55.684Z,97706.00
2022-12-16T02:17:50.088Z,97688.75
2022-12-16T02:21:02.125Z,97699.78
2022-12-16T02:24:13.836Z,97711.88
2022-12-16T02:27:48.570Z,97718.81
2022-12-16T02:30:39.639Z,97702.41
2022-12-16T02:33:37.337Z,97524.41
2022-12-16T02:36:44.143Z,97691.88
2022-12-16T02:39:32.821Z,97687.16
2022-12-16T02:42:31.017Z,97639.19
2022-12-16T02:45:21.003Z,97694.09
2022-12-16T02:48:07.025Z,97681.19
2022-12-16T02:50:53.291Z,97625.84
2022-12-16T02:53:42.100Z,97610.44
2022-12-16T02:56:45.520Z,97723.63
2022-12-16T02:59:58.189Z,97695.56
2022-12-16T03:03:03.257Z,97661.44
2022-12-16T03:05:52.633Z,97520.44
2022-12-16T03:08:42.752Z,97690.41
2022-12-16T03:11:31.025Z,97678.44
2022-12-16T03:14:20.510Z,97624.69
2022-12-16T03:17:07.706Z,97661.03
2022-12-16T03:20:19.032Z,97661.22
2022-12-16T03:23:11.401Z,97668.78
2022-12-16T03:26:04.748Z,97475.53
2022-12-16T03:29:00.496Z,97609.56
2022-12-16T03:32:03.353Z,97624.19
2022-12-16T03:34:55.323Z,97616.72
2022-12-16T03:37:43.434Z,97649.53
2022-12-16T03:40:30.099Z,97646.28
2022-12-16T03:43:16.503Z,97640.09
2022-12-16T03:46:06.407Z,97428.38
2022-12-16T03:48:52.462Z,97647.03
2022-12-16T03:51:38.182Z,97603.06
2022-12-16T03:54:24.398Z,97627.16
2022-12-16T03:57:15.079Z,97625.59
2022-12-16T04:00:01.181Z,97445.47
2022-12-16T04:02:57.569Z,97618.81
2022-12-16T04:05:45.310Z,97586.25
2022-12-16T04:08:30.590Z,97622.66
2022-12-16T04:11:34.774Z,97610.97
2022-12-16T04:14:38.655Z,97620.72
2022-12-16T04:17:42.695Z,97441.16
2022-12-16T04:20:52.566Z,97620.19
2022-12-16T04:24:14.143Z,97614.72
2022-12-16T04:27:18.092Z,97623.44
2022-12-16T04:30:20.475Z,97644.91
2022-12-16T04:33:28.928Z,97562.09
2022-12-16T04:36:32.861Z,97624.19
2022-12-16T04:39:37.035Z,97596.84
2022-12-16T04:42:41.104Z,97408.22
2022-12-16T04:45:45.270Z,97392.91
2022-12-16T04:48:49.089Z,97426.84
2022-12-16T04:51:53.102Z,97418.66
2022-12-16T04:54:57.117Z,97563.00
2022-12-16T04:58:12.962Z,97499.22
2022-12-16T05:01:17.698Z,97561.94
2022-12-16T05:04:22.230Z,97514.94
2022-12-16T05:07:26.312Z,97553.28
2022-12-16T05:10:30.471Z,97565.88
2022-12-16T05:13:34.945Z,97559.81
2022-12-16T05:16:39.137Z,97438.41
2022-12-16T05:19:59.910Z,97432.44
2022-12-16T05:23:04.320Z,97580.75
2022-12-16T05:26:08.734Z,97584.41
2022-12-16T05:29:12.987Z,97403.19
2022-12-16T05:32:17.553Z,97576.28
2022-12-16T05:35:21.944Z,97585.81
2022-12-16T05:38:26.343Z,97563.47
2022-12-16T05:41:30.305Z,97486.56
2022-12-16T05:44:34.277Z,97544.72
2022-12-16T05:47:38.276Z,97473.50
2022-12-16T05:50:42.478Z,97551.25
2022-12-16T05:53:46.872Z,97490.66
2022-12-16T05:56:51.060Z,97334.03
2022-12-16T05:59:55.195Z,97477.13
2022-12-16T06:02:59.403Z,97501.75
2022-12-16T06:06:03.825Z,97498.81
2022-12-16T06:09:07.878Z,97474.91
2022-12-16T06:12:12.121Z,97358.44
2022-12-16T06:15:16.342Z,97476.94
2022-12-16T06:18:20.282Z,97455.19
2022-12-16T06:21:24.212Z,97482.31
2022-12-16T06:24:29.132Z,97439.16
2022-12-16T06:27:33.325Z,97246.91
2022-12-16T06:30:37.648Z,97425.28
2022-12-16T06:33:42.169Z,97459.94
2022-12-16T06:36:46.378Z,97445.28
2022-12-16T06:39:53.202Z,97301.84
2022-12-16T06:43:00.346Z,97462.88
2022-12-16T06:46:04.657Z,97466.91
2022-12-16T06:49:08.735Z,97478.22
2022-12-16T06:52:13.141Z,97434.31
2022-12-16T06:55:25.219Z,97480.94
2022-12-16T06:58:29.859Z,97478.22
2022-12-16T07:01:34.118Z,97472.00
2022-12-16T07:04:38.351Z,97465.44
2022-12-16T07:07:42.250Z,97463.28
2022-12-16T07:10:46.366Z,97284.88
2022-12-16T07:13:50.375Z,97437.00
2022-12-16T07:16:54.551Z,97443.06
2022-12-16T07:19:59.388Z,97299.75
2022-12-16T07:23:10.972Z,97455.25
2022-12-16T07:26:17.371Z,97409.88
2022-12-16T07:29:21.832Z,97423.50
2022-12-16T07:32:26.127Z,97381.44
2022-12-16T07:35:30.033Z,97401.34
2022-12-16T07:38:33.937Z,97420.09
2022-12-16T07:41:37.992Z,97249.75
2022-12-16T07:44:42.066Z,97273.94
2022-12-16T07:47:46.164Z,97423.19
2022-12-16T07:50:50.399Z,97255.69
2022-12-16T07:53:55.074Z,97412.44
2022-12-16T07:56:59.343Z,97399.50
2022-12-16T08:00:03.469Z,97427.19
2022-12-16T08:03:15.871Z,97380.41
2022-12-16T08:06:19.984Z,97376.22
2022-12-16T08:09:24.196Z,97227.28
2022-12-16T08:12:28.485Z,97341.34
2022-12-16T08:15:32.532Z,97333.91
2022-12-16T08:18:36.663Z,97360.03
2022-12-16T08:21:40.914Z,97353.13
2022-12-16T08:24:52.988Z,97323.09
2022-12-16T08:27:57.850Z,97371.03
2022-12-16T08:31:02.269Z,97355.69
2022-12-16T08:34:06.483Z,97352.94
2022-12-16T08:37:10.505Z,97353.31
2022-12-16T08:43:39.113Z,97275.00
2022-12-16T08:46:43.825Z,97323.25
2022-12-16T08:49:48.170Z,97328.72
2022-12-16T08:52:53.041Z,97282.72
2022-12-16T08:55:57.422Z,97323.09
2022-12-16T08:59:01.314Z,97319.97
2022-12-16T09:02:06.169Z,97313.03
2022-12-16T09:05:10.281Z,97316.31
2022-12-16T09:08:18.752Z,97286.38
2022-12-16T09:11:23.451Z,97299.19
2022-12-16T09:14:27.603Z,97122.50
2022-12-16T09:17:31.558Z,97305.75
2022-12-16T09:20:35.571Z,97298.28
2022-12-16T09:23:39.664Z,97297.72
2022-12-16T09:26:44.375Z,97290.25
2022-12-16T09:29:48.504Z,97226.34
2022-12-16T09:32:53.004Z,97275.66
2022-12-16T09:35:57.516Z,97268.16
2022-12-16T09:39:01.982Z,97248.81
2022-12-16T09:42:49.860Z,97282.78
2022-12-16T09:46:06.635Z,97251.34
2022-12-16T09:49:38.162Z,97224.88
2022-12-16T09:52:43.875Z,97223.63
2022-12-16T09:55:51.391Z,97218.50
2022-12-16T09:59:01.877Z,97214.66
2022-12-16T10:02:07.733Z,97207.91
2022-12-16T10:05:13.403Z,97221.41
2022-12-16T10:08:45.029Z,97186.34
2022-12-16T10:12:15.483Z,97187.81
2022-12-16T10:15:43.271Z,97011.75
2022-12-16T10:19:12.837Z,97198.41
2022-12-16T10:22:42.755Z,97198.03
2022-12-16T10:26:08.206Z,97182.69
2022-12-16T10:29:39.823Z,97185.97
2022-12-16T10:33:05.877Z,97181.22
2022-12-16T10:36:13.116Z,97015.00
2022-12-16T10:39:21.767Z,97011.91
2022-12-16T10:42:37.632Z,97177.38
2022-12-16T10:45:53.360Z,97161.84
2022-12-16T10:48:57.351Z,97047.06
2022-12-16T10:52:05.378Z,97158.91
2022-12-16T10:55:38.608Z,97111.53
2022-12-16T10:59:11.828Z,97144.66
2022-12-16T11:02:19.535Z,97145.00
2022-12-16T11:05:52.585Z,97135.50
2022-12-16T11:08:57.270Z,97110.31
2022-12-16T11:12:01.637Z,97098.25
2022-12-16T11:18:38.627Z,97111.34
2022-12-16T11:21:42.849Z,96940.97
2022-12-16T11:24:47.358Z,97069.81
2022-12-16T11:27:51.804Z,97098.56
2022-12-16T11:30:55.952Z,96925.84
2022-12-16T11:34:03.173Z,96907.44
2022-12-16T11:37:11.022Z,97050.88
2022-12-16T11:40:15.808Z,97114.63
2022-12-16T11:43:22.319Z,97095.63
2022-12-16T11:46:44.053Z,97014.75
2022-12-16T11:49:52.065Z,97089.00
2022-12-16T11:52:58.133Z,97099.97
2022-12-16T11:56:11.097Z,97090.47
2022-12-16T11:59:24.795Z,97116.59
2022-12-16T12:02:35.983Z,96940.91
2022-12-16T12:05:56.192Z,97117.50
2022-12-16T12:09:31.711Z,97115.78
2022-12-16T12:12:41.977Z,97150.34
2022-12-16T12:15:46.052Z,97157.28
2022-12-16T12:19:09.387Z,97116.91
2022-12-16T12:22:21.247Z,97163.94
2022-12-16T12:25:36.631Z,97167.88
2022-12-16T12:29:14.996Z,97167.13
2022-12-16T12:33:02.276Z,97167.97
2022-12-16T12:36:18.193Z,97179.41
2022-12-16T12:39:25.704Z,97165.69
2022-12-16T12:42:51.799Z,97156.38
2022-12-16T12:46:21.479Z,97134.09
2022-12-16T12:49:38.429Z,97038.16
2022-12-16T12:53:06.746Z,97118.91
2022-12-16T12:56:22.959Z,97139.38
2022-12-16T12:59:43.919Z,97117.53
2022-12-16T13:02:59.629Z,97144.88
2022-12-16T13:06:04.445Z,97146.31
2022-12-16T13:09:08.499Z,97171.72
2022-12-16T13:12:24.918Z,97141.19
2022-12-16T13:15:30.327Z,97152.34
2022-12-16T13:18:45.691Z,97096.91
2022-12-16T13:21:56.782Z,97148.09
2022-12-16T13:25:08.889Z,96982.38
2022-12-16T13:28:15.910Z,96975.84
2022-12-16T13:31:25.707Z,97116.34
2022-12-16T13:34:33.114Z,97155.03
2022-12-16T13:37:44.518Z,97140.41
2022-12-16T13:41:16.720Z,96993.53
2022-12-16T13:44:20.881Z,97101.91
2022-12-16T13:48:13.179Z,97133.69
2022-12-16T13:51:19.175Z,97071.78
2022-12-16T13:54:26.342Z,97126.34
2022-12-16T13:57:34.257Z,97169.19
2022-12-16T14:00:41.733Z,97168.97
2022-12-16T14:03:58.532Z,97100.59
2022-12-16T14:07:03.153Z,97149.59
2022-12-16T14:10:07.714Z,97155.41
2022-12-16T14:13:19.360Z,97020.16
2022-12-16T14:16:32.206Z,97098.66
2022-12-16T14:19:43.265Z,97171.53
2022-12-16T14:23:55.352Z,97179.41
2022-12-16T14:26:54.909Z,97177.75
2022-12-16T14:30:01.960Z,97159.53
2022-12-16T14:33:06.535Z,97108.00
2022-12-16T14:36:11.054Z,96999.66
2022-12-16T14:39:15.289Z,97172.31
2022-12-16T14:42:19.494Z,97007.47
2022-12-16T14:45:39.047Z,97158.50
2022-12-16T14:48:52.560Z,97189.88
2022-12-16T14:52:06.094Z,97012.41
2022-12-16T14:55:11.476Z,97205.78
2022-12-16T14:58:29.780Z,97181.13
2022-12-16T15:01:41.195Z,97187.16
2022-12-16T15:04:54.347Z,97181.50
2022-12-16T15:08:14.859Z,97204.91
2022-12-16T15:11:53.839Z,97206.88
2022-12-16T15:15:01.323Z,97204.88
2022-12-16T15:18:10.837Z,97210.34
2022-12-16T15:21:15.416Z,97176.47
2022-12-16T15:24:19.988Z,97109.75
2022-12-16T15:27:40.586Z,97229.91
2022-12-16T15:31:04.386Z,97238.28
2022-12-16T15:34:29.680Z,97231.19
2022-12-16T15:37:49.179Z,97247.63
2022-12-16T15:40:59.043Z,97197.66
2022-12-16T15:44:04.950Z,97096.31
2022-12-16T15:47:09.758Z,97215.88
2022-12-16T15:50:16.949Z,97237.41
2022-12-16T15:53:52.134Z,97185.63
2022-12-16T15:57:04.960Z,97257.72
2022-12-16T16:00:18.691Z,97174.31
2022-12-16T16:03:49.267Z,97256.78
2022-12-16T16:10:47.396Z,97272.47
2022-12-16T16:13:52.774Z,97258.94
2022-12-16T16:16:56.971Z,97233.41
2022-12-16T16:20:03.738Z,97274.66
2022-12-16T16:23:08.566Z,97281.59
2022-12-16T16:26:13.258Z,97121.47
2022-12-16T16:29:17.889Z,97252.78
2022-12-16T16:32:27.622Z,97106.53
2022-12-16T16:35:33.867Z,97125.84
2022-12-16T16:38:38.650Z,97293.63
2022-12-16T16:41:43.845Z,97279.78
2022-12-16T16:44:49.687Z,97293.28
2022-12-16T16:47:54.588Z,97286.34
2022-12-16T16:50:58.895Z,97244.41
2022-12-16T16:54:03.766Z,97136.41
2022-12-16T16:57:09.432Z,97292.38
2022-12-16T17:00:13.635Z,97306.47
2022-12-16T17:03:18.469Z,97292.56
2022-12-16T17:06:24.164Z,97299.50
2022-12-16T17:09:28.877Z,97226.16
2022-12-16T17:12:43.147Z,97315.19
2022-12-16T17:16:11.780Z,97302.78
2022-12-16T17:19:22.041Z,97265.94
2022-12-16T17:22:26.890Z,97262.81
2022-12-16T17:25:35.921Z,97329.06
2022-12-16T17:28:40.594Z,97342.56
2022-12-16T17:31:47.138Z,97342.19
2022-12-16T17:34:52.777Z,97338.72
2022-12-16T17:38:00.252Z,97363.38
2022-12-16T17:41:15.630Z,97377.50
2022-12-16T17:44:21.168Z,97378.75
2022-12-16T17:47:27.393Z,97373.28
2022-12-16T17:50:33.556Z,97390.63
2022-12-16T17:53:39.508Z,97325.84
2022-12-16T17:56:44.311Z,97406.91
2022-12-16T17:59:53.206Z,97346.28
2022-12-16T18:02:59.324Z,97416.78
2022-12-16T18:06:03.624Z,97394.09
2022-12-16T18:09:08.921Z,97411.28
2022-12-16T18:12:16.992Z,97415.31
2022-12-16T18:15:22.801Z,97420.78
2022-12-16T18:18:27.564Z,97437.09
2022-12-16T18:21:32.622Z,97419.16
2022-12-16T18:24:39.799Z,97416.22
2022-12-16T18:27:47.969Z,97401.28
2022-12-16T18:30:55.463Z,97425.19
2022-12-16T18:34:00.884Z,97444.22
2022-12-16T18:37:07.586Z,97399.63
2022-12-16T18:40:18.027Z,97437.97
2022-12-16T18:43:28.235Z,97443.28
2022-12-16T18:46:33.110Z,97314.88
2022-12-16T18:49:39.520Z,97465.41
2022-12-16T18:56:55.250Z,97427.78
2022-12-16T18:59:59.396Z,97349.94
2022-12-16T19:03:04.101Z,97404.94
2022-12-16T19:06:13.689Z,97498.69
2022-12-16T19:09:39.505Z,97496.13
2022-12-16T19:12:47.494Z,97492.09
2022-12-16T19:15:53.338Z,97494.31
2022-12-16T19:18:57.966Z,97496.88
2022-12-16T19:22:05.903Z,97101.94
2022-12-16T19:25:11.765Z,97518.81
2022-12-16T19:28:18.198Z,97463.22
2022-12-16T19:31:32.511Z,97520.28
2022-12-16T19:34:40.387Z,97530.72
2022-12-16T19:37:45.434Z,97518.63
2022-12-16T19:40:51.450Z,97534.91
2022-12-16T19:47:28.692Z,97509.28
2022-12-16T19:53:40.671Z,97572.22
2022-12-16T19:56:45.143Z,97471.63
2022-12-16T19:59:49.557Z,97563.81
2022-12-16T20:02:54.107Z,97545.13
2022-12-16T20:05:58.497Z,97578.81
2022-12-16T20:09:08.173Z,97576.97
2022-12-16T20:12:14.877Z,97578.81
2022-12-16T20:15:19.707Z,97564.53
2022-12-16T20:18:25.156Z,97388.03
2022-12-16T20:21:49.166Z,97578.06
2022-12-16T20:28:24.653Z,97539.28
2022-12-16T20:31:29.771Z,97568.19
2022-12-16T20:34:34.174Z,97517.31
2022-12-16T20:37:40.923Z,97578.41
2022-12-16T20:40:46.082Z,97584.09
2022-12-16T20:47:29.504Z,97569.66
2022-12-16T20:50:36.837Z,97564.53
2022-12-16T20:53:42.806Z,97593.63
2022-12-16T20:56:49.515Z,97593.06
2022-12-16T21:00:06.836Z,97583.38
2022-12-16T21:03:14.058Z,97594.16
2022-12-16T21:06:19.525Z,97594.91
2022-12-16T21:09:28.216Z,97421.13
2022-12-16T21:12:36.363Z,97575.47
2022-12-16T21:15:41.347Z,97413.41
2022-12-16T21:18:45.536Z,97454.16
2022-12-16T21:21:50.162Z,97642.06
2022-12-16T21:24:56.773Z,97641.50
2022-12-16T21:28:01.029Z,97515.72
2022-12-16T21:31:04.903Z,97480.59
2022-12-16T21:34:11.550Z,97645.72
2022-12-16T21:37:15.909Z,97650.06
2022-12-16T21:40:19.967Z,97653.72
2022-12-16T21:43:24.252Z,97591.75
2022-12-16T21:46:28.656Z,97647.81
2022-12-16T21:49:32.851Z,97618.88
2022-12-16T21:52:37.103Z,97638.25
2022-12-16T21:55:41.115Z,97645.94
2022-12-16T21:58:45.252Z,97652.50
2022-12-16T22:01:49.959Z,97484.63
2022-12-16T22:04:54.421Z,97570.75
2022-12-16T22:08:01.025Z,97663.78
2022-12-16T22:11:04.991Z,97637.75
2022-12-16T22:14:09.140Z,97665.25
2022-12-16T22:17:14.191Z,97681.69
2022-12-16T22:20:19.147Z,97673.66
2022-12-16T22:23:34.422Z,97518.28
2022-12-16T22:26:39.659Z,97675.47
2022-12-16T22:29:43.608Z,97490.16
2022-12-16T22:32:50.156Z,97682.38
2022-12-16T22:35:54.033Z,97494.88
2022-12-16T22:38:59.501Z,97679.56
2022-12-16T22:42:03.893Z,97466.69
2022-12-16T22:45:07.957Z,97682.78
2022-12-16T22:48:16.261Z,97630.66
2022-12-16T22:51:21.136Z,97501.06
2022-12-16T22:54:25.041Z,97570.13
2022-12-16T22:57:34.230Z,97686.91
2022-12-16T23:00:39.848Z,97690.13
2022-12-16T23:03:44.986Z,97647.94
2022-12-16T23:06:49.456Z,97541.53
2022-12-16T23:09:53.847Z,97620.69
2022-12-16T23:13:00.388Z,97648.81
2022-12-16T23:16:04.358Z,97643.84
2022-12-16T23:19:08.230Z,97652.22
2022-12-16T23:22:12.297Z,97703.22
2022-12-16T23:25:16.641Z,97545.66
2022-12-16T23:28:20.804Z,97704.81
2022-12-16T23:31:24.978Z,97730.03
2022-12-16T23:34:29.474Z,97545.88
2022-12-16T23:37:34.597Z,97551.78
2022-12-16T23:40:38.963Z,97718.03
2022-12-16T23:43:43.557Z,97719.56
2022-12-16T23:46:48.878Z,97718.13
2022-12-16T23:49:53.744Z,97540.03
2022-12-16T23:53:00.878Z,97558.00
2022-12-16T23:56:05.255Z,97750.47
2022-12-16T23:59:09.378Z,97750.47
